LGTS/SKG METAR and TAF weather

Enter ICAO airport designator
Station Type Date Time Source
LGTS METAR 2021/08/05 05:20 UTC NOAA

LGTS 050520Z 00000KT CAVOK 28/17 Q1012 NOSIG


Station Type Date Time Source
LGTS Decoded METAR 2021/08/05 05:20 UTC NOAA

Thessaloniki Airport , Greece (LGTS) 40-31N 022-58E 4M
Aug 05, 2021 - 01:20 AM EDT / 2021.08.05 0520 UTC
Wind: Calm:0
Visibility: greater than 7 mile(s):0
Temperature: 82 F (28 C)
Dew Point: 62 F (17 C)
Relative Humidity: 51%
Pressure (altimeter): 29.88 in. Hg (1012 hPa)
ob: LGTS 050520Z 00000KT CAVOK 28/17 Q1012 NOSIG
cycle: 5

Station Type Date Time Source
LGTS TAF 2021/08/05 06:17 UTC NOAA

TAF LGTS 050500Z 0506/0606 14005KT CAVOK
BECMG 0509/0511 14015KT
BECMG 0522/0524 9999 FEW030
BECMG 0600/0602 34013KT

Example: see airport list